PWSweather.com
Personal Weather Stations
Station Observations
KKSTOPEK1
South Central , Topeka, KS 66611

South Central Topeka, KS 66611

Lat: 39.03, Lon: -95.71

Elevation: 945

Station Type: Davis Vantage Vue

http://tallgrasspixels.net/weather/index.php

High Low Average
Temperature 68.8°F20.4°F 48.2°F9.0°F 60.2°F15.7°F
Dew Point 60.7°F15.9°F 45.9°F7.7°F 56.5°F13.6°F
Winds 2.9 mph SW4.7 mph SW Calm Calm 0.3 mph 0.5 mph
Wind Gusts 8.0 mph12.9 mph -- 1.0 mph1.6 mph
Humidity 98% 66% 88%
Pressure 30.21 in1023.00 in 29.98 in1015.20 in -
Precipitation 1.42 in36.10 in - -
Hour Temp Dew Point Humidity Winds Wind Gusts Pressure Precip Precip Rate Daily Precip Total
12:00 AM 58.0°F14.4°C 57.2°F14.0°C 97% Calm Calm -- 29.99 in1015.6 mb - 0.01 in0.3 mm 0.12 in3.0 mm
12:10 AM 58.2°F14.6°C 57.3°F14.1°C 97% 0.2 mph SSE0.3 kmh SSE 1.0 mph1.6 kmh 29.99 in1015.6 mb - 0.13 in3.3 mm 0.13 in3.3 mm
12:20 AM 58.0°F14.4°C 57.1°F13.9°C 97% Calm Calm 1.0 mph1.6 kmh 29.99 in1015.6 mb - 0.01 in0.3 mm 0.13 in3.3 mm
12:30 AM 58.0°F14.4°C 57.2°F14.0°C 97% Calm Calm 1.0 mph1.6 kmh 29.99 in1015.6 mb - 0.00 in0.0 mm 0.13 in3.3 mm
12:40 AM 58.0°F14.4°C 57.2°F14.0°C 97% Calm Calm 1.0 mph1.6 kmh 29.99 in1015.6 mb - 0.00 in0.0 mm 0.13 in3.3 mm
12:50 AM 58.0°F14.4°C 57.2°F14.0°C 97% Calm Calm -- 29.99 in1015.6 mb - 0.00 in0.0 mm 0.13 in3.3 mm
01:00 AM 58.0°F14.4°C 57.2°F14.0°C 97% Calm Calm -- 30.00 in1015.9 mb - 0.00 in0.0 mm 0.15 in3.8 mm
01:10 AM 58.0°F14.4°C 57.2°F14.0°C 97% Calm Calm -- 29.99 in1015.6 mb - 0.02 in0.5 mm 0.15 in3.8 mm
01:20 AM 58.0°F14.4°C 57.2°F14.0°C 97% Calm Calm -- 29.98 in1015.2 mb - 0.01 in0.3 mm 0.16 in4.1 mm
01:30 AM 58.0°F14.4°C 57.2°F14.0°C 97% Calm Calm -- 29.98 in1015.2 mb - 0.00 in0.0 mm 0.16 in4.1 mm
01:40 AM 58.1°F14.5°C 57.3°F14.1°C 97% Calm Calm -- 30.00 in1015.9 mb - 0.01 in0.3 mm 0.17 in4.3 mm
01:50 AM 58.2°F14.6°C 57.3°F14.1°C 97% Calm Calm 1.0 mph1.6 kmh 30.00 in1015.9 mb - 0.00 in0.0 mm 0.17 in4.3 mm
02:00 AM 58.2°F14.6°C 57.4°F14.1°C 97% 0.1 mph ESE0.2 kmh ESE -- 30.01 in1016.3 mb - 0.00 in0.0 mm 0.20 in5.1 mm
02:10 AM 58.3°F14.6°C 57.5°F14.2°C 97% 0.4 mph SW0.6 kmh SW 3.0 mph4.8 kmh 30.02 in1016.6 mb - 0.04 in1.0 mm 0.21 in5.3 mm
02:20 AM 58.2°F14.6°C 57.4°F14.1°C 97% Calm Calm 1.0 mph1.6 kmh 30.02 in1016.6 mb - 0.00 in0.0 mm 0.21 in5.3 mm
02:30 AM 58.1°F14.5°C 57.3°F14.1°C 97% 0.2 mph SSE0.3 kmh SSE -- 30.01 in1016.3 mb - 0.00 in0.0 mm 0.21 in5.3 mm
02:40 AM 57.9°F14.4°C 57.1°F13.9°C 97% Calm Calm -- 30.02 in1016.6 mb - 0.00 in0.0 mm 0.21 in5.3 mm
02:50 AM 57.7°F14.3°C 56.9°F13.8°C 97% Calm Calm -- 30.02 in1016.6 mb - 0.00 in0.0 mm 0.21 in5.3 mm
03:00 AM 57.6°F14.2°C 56.8°F13.8°C 97% Calm Calm -- 30.02 in1016.6 mb - 0.00 in0.0 mm 0.23 in5.8 mm
03:10 AM 57.4°F14.1°C 56.6°F13.7°C 97% Calm Calm -- 30.01 in1016.3 mb - 0.02 in0.5 mm 0.23 in5.8 mm
03:20 AM 57.2°F14.0°C 56.4°F13.6°C 97% Calm Calm -- 30.02 in1016.6 mb - 0.00 in0.0 mm 0.23 in5.8 mm
03:30 AM 57.1°F13.9°C 56.3°F13.5°C 97% Calm Calm -- 30.01 in1016.3 mb - 0.00 in0.0 mm 0.23 in5.8 mm
03:40 AM 57.0°F13.9°C 56.2°F13.4°C 97% Calm Calm -- 30.01 in1016.3 mb - 0.00 in0.0 mm 0.23 in5.8 mm
03:50 AM 56.9°F13.8°C 56.1°F13.4°C 97% Calm Calm -- 30.01 in1016.3 mb - 0.00 in0.0 mm 0.23 in5.8 mm
04:00 AM 56.9°F13.8°C 56.0°F13.3°C 97% Calm Calm -- 30.01 in1016.3 mb - 0.00 in0.0 mm 0.23 in5.8 mm
04:10 AM 56.8°F13.8°C 56.0°F13.3°C 97% Calm Calm -- 30.00 in1015.9 mb - 0.00 in0.0 mm 0.23 in5.8 mm
04:20 AM 56.8°F13.8°C 56.0°F13.3°C 97% Calm Calm -- 30.01 in1016.3 mb - 0.00 in0.0 mm 0.23 in5.8 mm
04:30 AM 56.8°F13.8°C 56.0°F13.3°C 97% Calm Calm -- 30.01 in1016.3 mb - 0.00 in0.0 mm 0.23 in5.8 mm
04:40 AM 56.9°F13.8°C 56.1°F13.4°C 97% Calm Calm -- 30.01 in1016.3 mb - 0.00 in0.0 mm 0.23 in5.8 mm
04:50 AM 56.9°F13.8°C 56.4°F13.6°C 98% Calm Calm -- 30.02 in1016.6 mb - 0.00 in0.0 mm 0.23 in5.8 mm
05:00 AM 57.0°F13.9°C 56.5°F13.6°C 98% Calm Calm -- 30.04 in1017.3 mb - 0.00 in0.0 mm 0.23 in5.8 mm
05:10 AM 57.0°F13.9°C 56.5°F13.6°C 98% Calm Calm -- 30.03 in1016.9 mb - 0.01 in0.3 mm 0.24 in6.1 mm
05:20 AM 57.1°F13.9°C 56.6°F13.7°C 98% 0.1 mph SSE0.2 kmh SSE 1.0 mph1.6 kmh 30.03 in1016.9 mb - 0.00 in0.0 mm 0.25 in6.4 mm
05:30 AM 57.2°F14.0°C 56.7°F13.7°C 98% Calm Calm -- 30.03 in1016.9 mb - 0.02 in0.5 mm 0.26 in6.6 mm
05:40 AM 57.1°F13.9°C 56.6°F13.7°C 98% Calm Calm -- 30.03 in1016.9 mb - 0.03 in0.8 mm 0.29 in7.4 mm
05:50 AM 57.0°F13.9°C 56.5°F13.6°C 98% Calm Calm -- 30.02 in1016.6 mb - 0.05 in1.3 mm 0.34 in8.6 mm
06:00 AM 57.0°F13.9°C 56.5°F13.6°C 98% Calm Calm -- 30.02 in1016.6 mb - 0.05 in1.3 mm 0.39 in9.9 mm
06:10 AM 57.0°F13.9°C 56.5°F13.6°C 98% Calm Calm -- 30.02 in1016.6 mb - 0.08 in2.0 mm 0.47 in11.9 mm
06:20 AM 56.9°F13.8°C 56.4°F13.6°C 98% Calm Calm -- 30.03 in1016.9 mb - 0.00 in0.0 mm 0.47 in11.9 mm
06:30 AM 56.8°F13.8°C 56.3°F13.5°C 98% Calm Calm -- 30.03 in1016.9 mb - 0.00 in0.0 mm 0.47 in11.9 mm
06:40 AM 56.8°F13.8°C 56.3°F13.5°C 98% Calm Calm 1.0 mph1.6 kmh 30.04 in1017.3 mb - 0.00 in0.0 mm 0.47 in11.9 mm
06:50 AM 56.9°F13.8°C 56.4°F13.6°C 98% Calm Calm -- 30.03 in1016.9 mb - 0.00 in0.0 mm 0.47 in11.9 mm
07:00 AM 57.0°F13.9°C 56.4°F13.6°C 98% 0.3 mph SW0.5 kmh SW 1.0 mph1.6 kmh 30.03 in1016.9 mb - 0.00 in0.0 mm 0.54 in13.7 mm
07:10 AM 57.0°F13.9°C 56.5°F13.6°C 98% 0.1 mph SW0.2 kmh SW -- 30.04 in1017.3 mb - 0.07 in1.8 mm 0.54 in13.7 mm
07:20 AM 57.1°F13.9°C 56.6°F13.7°C 98% 0.1 mph SW0.2 kmh SW 1.0 mph1.6 kmh 30.05 in1017.6 mb - 0.00 in0.0 mm 0.54 in13.7 mm
07:30 AM 57.2°F14.0°C 56.6°F13.7°C 98% Calm Calm -- 30.05 in1017.6 mb - 0.00 in0.0 mm 0.54 in13.7 mm
07:40 AM 57.1°F13.9°C 56.6°F13.7°C 98% Calm Calm -- 30.05 in1017.6 mb - 0.00 in0.0 mm 0.54 in13.7 mm
07:50 AM 57.2°F14.0°C 56.7°F13.7°C 98% Calm Calm -- 30.06 in1017.9 mb - 0.00 in0.0 mm 0.54 in13.7 mm
08:00 AM 57.1°F13.9°C 56.6°F13.7°C 98% Calm Calm 1.0 mph1.6 kmh 30.07 in1018.3 mb - 0.01 in0.3 mm 0.60 in15.2 mm
08:10 AM 57.2°F14.0°C 56.6°F13.7°C 98% Calm Calm -- 30.08 in1018.6 mb - 0.05 in1.3 mm 0.60 in15.2 mm
08:20 AM 57.2°F14.0°C 56.7°F13.7°C 98% Calm Calm -- 30.09 in1019.0 mb - 0.01 in0.3 mm 0.61 in15.5 mm
08:30 AM 57.2°F14.0°C 56.7°F13.7°C 98% Calm Calm -- 30.09 in1019.0 mb - 0.01 in0.3 mm 0.62 in15.7 mm
08:40 AM 56.7°F13.7°C 55.9°F13.3°C 97% 1.8 mph WSW2.9 kmh WSW 8.0 mph12.9 kmh 30.10 in1019.3 mb - 0.02 in0.5 mm 0.65 in16.5 mm
08:50 AM 55.1°F12.8°C 54.0°F12.2°C 96% 0.9 mph NW1.4 kmh NW 7.0 mph11.3 kmh 30.11 in1019.6 mb - 0.03 in0.8 mm 0.67 in17.0 mm
09:00 AM 52.5°F11.4°C 49.6°F9.8°C 90% 2.2 mph W3.5 kmh W 6.0 mph9.7 kmh 30.11 in1019.6 mb - 0.03 in0.8 mm 0.75 in19.1 mm
09:10 AM 51.5°F10.8°C 48.9°F9.4°C 91% 2.9 mph SW4.7 kmh SW 6.0 mph9.7 kmh 30.12 in1020.0 mb - 0.16 in4.1 mm 0.84 in21.3 mm
09:20 AM 49.4°F9.7°C 47.4°F8.6°C 93% 0.8 mph SW1.3 kmh SW 4.0 mph6.4 kmh 30.12 in1020.0 mb - 0.04 in1.0 mm 0.88 in22.4 mm
09:30 AM 48.8°F9.3°C 46.6°F8.1°C 92% 2.8 mph NW4.5 kmh NW 6.0 mph9.7 kmh 30.12 in1020.0 mb - 0.04 in1.0 mm 0.92 in23.4 mm
09:40 AM 48.4°F9.1°C 46.5°F8.1°C 93% 1.5 mph W2.4 kmh W 2.0 mph3.2 kmh 30.12 in1020.0 mb - 0.02 in0.5 mm 0.95 in24.1 mm
09:50 AM 48.2°F9.0°C 46.0°F7.8°C 92% 1.2 mph E1.9 kmh E 3.0 mph4.8 kmh 30.13 in1020.3 mb - 0.02 in0.5 mm 0.96 in24.4 mm
10:00 AM 48.2°F9.0°C 46.0°F7.8°C 92% 0.7 mph SSE1.1 kmh SSE 3.0 mph4.8 kmh 30.13 in1020.3 mb - 0.00 in0.0 mm 1.00 in25.4 mm
10:10 AM 48.3°F9.1°C 46.1°F7.8°C 92% 0.6 mph NE1.0 kmh NE 4.0 mph6.4 kmh 30.14 in1020.7 mb - 0.05 in1.3 mm 1.01 in25.7 mm
10:20 AM 48.3°F9.1°C 46.1°F7.8°C 92% 2.4 mph N3.9 kmh N 4.0 mph6.4 kmh 30.14 in1020.7 mb - 0.12 in3.0 mm 1.13 in28.7 mm
10:30 AM 48.4°F9.1°C 45.9°F7.7°C 91% 0.6 mph S1.0 kmh S 2.0 mph3.2 kmh 30.14 in1020.7 mb - 0.00 in0.0 mm 1.13 in28.7 mm
10:41 AM 53.0°F11.7°C 49.8°F9.9°C 89% 0.2 mph ENE0.3 kmh ENE 3.0 mph4.8 kmh 30.15 in1021.0 mb - 0.25 in6.4 mm 1.38 in35.1 mm
10:50 AM 58.9°F14.9°C 56.3°F13.5°C 91% 1.6 mph N2.6 kmh N 5.0 mph8.0 kmh 30.16 in1021.3 mb - 0.00 in0.0 mm 1.38 in35.1 mm
11:00 AM 59.2°F15.1°C 56.9°F13.8°C 92% 0.1 mph ENE0.2 kmh ENE 1.0 mph1.6 kmh 30.17 in1021.7 mb - 0.00 in0.0 mm 1.38 in35.1 mm
11:10 AM 59.5°F15.3°C 56.8°F13.8°C 91% 0.8 mph WSW1.3 kmh WSW 2.0 mph3.2 kmh 30.17 in1021.7 mb - 0.00 in0.0 mm 1.38 in35.1 mm
11:20 AM 59.7°F15.4°C 57.1°F13.9°C 91% 0.7 mph NNE1.1 kmh NNE 1.0 mph1.6 kmh 30.16 in1021.3 mb - 0.00 in0.0 mm 1.38 in35.1 mm
11:30 AM 60.3°F15.7°C 58.0°F14.4°C 92% Calm Calm 1.0 mph1.6 kmh 30.16 in1021.3 mb - 0.00 in0.0 mm 1.38 in35.1 mm
11:40 AM 60.7°F15.9°C 57.7°F14.3°C 90% 0.6 mph NE1.0 kmh NE 3.0 mph4.8 kmh 30.16 in1021.3 mb - 0.00 in0.0 mm 1.38 in35.1 mm
11:50 AM 61.0°F16.1°C 57.7°F14.3°C 89% 0.4 mph W0.6 kmh W -- 30.16 in1021.3 mb - 0.00 in0.0 mm 1.38 in35.1 mm
12:00 PM 61.4°F16.3°C 58.1°F14.5°C 89% 0.1 mph WSW0.2 kmh WSW 1.0 mph1.6 kmh 30.16 in1021.3 mb - 0.00 in0.0 mm 1.38 in35.1 mm
12:10 PM 61.8°F16.6°C 58.2°F14.6°C 88% Calm Calm -- 30.16 in1021.3 mb - 0.00 in0.0 mm 1.38 in35.1 mm
12:20 PM 62.3°F16.8°C 58.4°F14.7°C 87% 0.2 mph NNE0.3 kmh NNE 1.0 mph1.6 kmh 30.16 in1021.3 mb - 0.00 in0.0 mm 1.38 in35.1 mm
12:30 PM 62.8°F17.1°C 58.6°F14.8°C 86% 0.2 mph NE0.3 kmh NE 3.0 mph4.8 kmh 30.17 in1021.7 mb - 0.00 in0.0 mm 1.38 in35.1 mm
12:40 PM 63.2°F17.3°C 58.3°F14.6°C 84% Calm Calm -- 30.17 in1021.7 mb - 0.00 in0.0 mm 1.38 in35.1 mm
12:50 PM 63.4°F17.4°C 57.1°F13.9°C 80% 1.4 mph NE2.3 kmh NE 5.0 mph8.0 kmh 30.16 in1021.3 mb - 0.00 in0.0 mm 1.38 in35.1 mm
01:00 PM 63.5°F17.5°C 57.6°F14.2°C 81% Calm Calm -- 30.16 in1021.3 mb - 0.00 in0.0 mm 1.38 in35.1 mm
01:10 PM 64.0°F17.8°C 57.7°F14.3°C 80% 0.1 mph NE0.2 kmh NE -- 30.16 in1021.3 mb - 0.00 in0.0 mm 1.38 in35.1 mm
01:20 PM 64.3°F17.9°C 58.0°F14.4°C 80% Calm Calm -- 30.16 in1021.3 mb - 0.00 in0.0 mm 1.38 in35.1 mm
01:30 PM 64.7°F18.2°C 57.7°F14.3°C 78% 0.6 mph NNE1.0 kmh NNE 2.0 mph3.2 kmh 30.16 in1021.3 mb - 0.00 in0.0 mm 1.38 in35.1 mm
01:40 PM 65.0°F18.3°C 56.9°F13.8°C 75% 0.4 mph W0.6 kmh W 1.0 mph1.6 kmh 30.15 in1021.0 mb - 0.00 in0.0 mm 1.38 in35.1 mm
01:50 PM 65.6°F18.7°C 57.8°F14.3°C 76% 0.5 mph NNE0.8 kmh NNE 4.0 mph6.4 kmh 30.15 in1021.0 mb - 0.00 in0.0 mm 1.38 in35.1 mm
02:00 PM 66.0°F18.9°C 58.2°F14.6°C 76% 0.2 mph W0.3 kmh W 3.0 mph4.8 kmh 30.15 in1021.0 mb - 0.00 in0.0 mm 1.38 in35.1 mm
02:10 PM 66.1°F18.9°C 57.6°F14.2°C 74% 0.2 mph WSW0.3 kmh WSW -- 30.15 in1021.0 mb - 0.00 in0.0 mm 1.38 in35.1 mm
02:20 PM 66.5°F19.2°C 56.0°F13.3°C 69% 2.0 mph S3.2 kmh S 4.0 mph6.4 kmh 30.14 in1020.7 mb - 0.00 in0.0 mm 1.38 in35.1 mm
02:30 PM 66.6°F19.2°C 56.1°F13.4°C 69% 0.7 mph W1.1 kmh W 1.0 mph1.6 kmh 30.14 in1020.7 mb - 0.00 in0.0 mm 1.38 in35.1 mm
02:40 PM 66.6°F19.2°C 56.1°F13.4°C 69% 0.9 mph W1.4 kmh W 3.0 mph4.8 kmh 30.13 in1020.3 mb - 0.00 in0.0 mm 1.38 in35.1 mm
02:50 PM 66.8°F19.3°C 55.5°F13.1°C 67% 0.4 mph WSW0.6 kmh WSW 3.0 mph4.8 kmh 30.13 in1020.3 mb - 0.00 in0.0 mm 1.38 in35.1 mm
03:00 PM 67.3°F19.6°C 56.4°F13.6°C 68% 0.8 mph W1.3 kmh W 1.0 mph1.6 kmh 30.13 in1020.3 mb - 0.00 in0.0 mm 1.38 in35.1 mm
03:10 PM 67.3°F19.6°C 56.8°F13.8°C 69% 1.0 mph W1.6 kmh W 2.0 mph3.2 kmh 30.12 in1020.0 mb - 0.00 in0.0 mm 1.38 in35.1 mm
03:20 PM 67.1°F19.5°C 56.2°F13.4°C 68% 0.9 mph WSW1.4 kmh WSW 3.0 mph4.8 kmh 30.12 in1020.0 mb - 0.00 in0.0 mm 1.38 in35.1 mm
03:30 PM 67.1°F19.5°C 55.8°F13.2°C 67% 0.3 mph WSW0.5 kmh WSW 2.0 mph3.2 kmh 30.12 in1020.0 mb - 0.00 in0.0 mm 1.38 in35.1 mm
03:40 PM 67.4°F19.7°C 56.9°F13.8°C 69% Calm Calm -- 30.12 in1020.0 mb - 0.00 in0.0 mm 1.38 in35.1 mm
03:50 PM 67.7°F19.8°C 56.3°F13.5°C 67% 0.5 mph W0.8 kmh W 2.0 mph3.2 kmh 30.12 in1020.0 mb - 0.00 in0.0 mm 1.38 in35.1 mm
04:00 PM 67.7°F19.8°C 55.9°F13.3°C 66% 0.2 mph SW0.3 kmh SW 1.0 mph1.6 kmh 30.12 in1020.0 mb - 0.00 in0.0 mm 1.38 in35.1 mm
04:10 PM 67.4°F19.7°C 56.1°F13.4°C 67% Calm Calm -- 30.12 in1020.0 mb - 0.00 in0.0 mm 1.38 in35.1 mm
04:20 PM 67.4°F19.7°C 56.9°F13.8°C 69% Calm Calm -- 30.13 in1020.3 mb - 0.00 in0.0 mm 1.38 in35.1 mm
04:30 PM 67.2°F19.6°C 57.5°F14.2°C 71% Calm Calm -- 30.13 in1020.3 mb - 0.00 in0.0 mm 1.38 in35.1 mm
04:40 PM 67.3°F19.6°C 57.5°F14.2°C 71% Calm Calm -- 30.13 in1020.3 mb - 0.00 in0.0 mm 1.38 in35.1 mm
04:50 PM 67.5°F19.7°C 57.4°F14.1°C 70% Calm Calm -- 30.12 in1020.0 mb - 0.00 in0.0 mm 1.38 in35.1 mm
05:00 PM 67.8°F19.9°C 57.7°F14.3°C 70% 0.1 mph W0.2 kmh W 1.0 mph1.6 kmh 30.13 in1020.3 mb - 0.00 in0.0 mm 1.38 in35.1 mm
05:10 PM 68.2°F20.1°C 57.6°F14.2°C 69% Calm Calm -- 30.12 in1020.0 mb - 0.00 in0.0 mm 1.38 in35.1 mm
05:20 PM 68.4°F20.2°C 57.0°F13.9°C 67% 0.1 mph WSW0.2 kmh WSW 1.0 mph1.6 kmh 30.12 in1020.0 mb - 0.00 in0.0 mm 1.38 in35.1 mm
05:30 PM 68.3°F20.2°C 56.9°F13.8°C 67% 0.8 mph N1.3 kmh N 3.0 mph4.8 kmh 30.12 in1020.0 mb - 0.00 in0.0 mm 1.38 in35.1 mm
05:40 PM 68.2°F20.1°C 57.6°F14.2°C 69% Calm Calm -- 30.12 in1020.0 mb - 0.00 in0.0 mm 1.38 in35.1 mm
05:50 PM 68.8°F20.4°C 59.1°F15.1°C 71% Calm Calm -- 30.13 in1020.3 mb - 0.00 in0.0 mm 1.38 in35.1 mm
06:00 PM 68.7°F20.4°C 58.1°F14.5°C 69% Calm Calm -- 30.13 in1020.3 mb - 0.00 in0.0 mm 1.38 in35.1 mm
06:10 PM 68.3°F20.2°C 58.1°F14.5°C 70% Calm Calm -- 30.13 in1020.3 mb - 0.00 in0.0 mm 1.38 in35.1 mm
06:20 PM 67.3°F19.6°C 59.5°F15.3°C 76% Calm Calm -- 30.13 in1020.3 mb - 0.00 in0.0 mm 1.38 in35.1 mm
06:30 PM 66.6°F19.2°C 60.2°F15.7°C 80% Calm Calm -- 30.13 in1020.3 mb - 0.00 in0.0 mm 1.38 in35.1 mm
06:40 PM 66.0°F18.9°C 60.7°F15.9°C 83% Calm Calm -- 30.14 in1020.7 mb - 0.00 in0.0 mm 1.38 in35.1 mm
06:50 PM 65.4°F18.6°C 59.7°F15.4°C 82% Calm Calm -- 30.13 in1020.3 mb - 0.00 in0.0 mm 1.38 in35.1 mm
07:00 PM 64.9°F18.3°C 60.0°F15.6°C 84% Calm Calm -- 30.14 in1020.7 mb - 0.00 in0.0 mm 1.38 in35.1 mm
07:10 PM 64.5°F18.1°C 59.9°F15.5°C 85% Calm Calm -- 30.14 in1020.7 mb - 0.00 in0.0 mm 1.38 in35.1 mm
07:20 PM 64.0°F17.8°C 60.1°F15.6°C 87% Calm Calm -- 30.14 in1020.7 mb - 0.00 in0.0 mm 1.38 in35.1 mm
07:30 PM 63.6°F17.6°C 60.0°F15.6°C 88% Calm Calm -- 30.14 in1020.7 mb - 0.00 in0.0 mm 1.38 in35.1 mm
07:40 PM 63.1°F17.3°C 59.8°F15.4°C 89% Calm Calm -- 30.15 in1021.0 mb - 0.00 in0.0 mm 1.38 in35.1 mm
07:50 PM 62.8°F17.1°C 60.1°F15.6°C 91% Calm Calm -- 30.15 in1021.0 mb - 0.00 in0.0 mm 1.38 in35.1 mm
08:00 PM 62.4°F16.9°C 59.7°F15.4°C 91% Calm Calm -- 30.15 in1021.0 mb - 0.00 in0.0 mm 1.38 in35.1 mm
08:10 PM 62.2°F16.8°C 59.8°F15.4°C 92% Calm Calm -- 30.15 in1021.0 mb - 0.00 in0.0 mm 1.38 in35.1 mm
08:20 PM 62.0°F16.7°C 59.6°F15.3°C 92% Calm Calm -- 30.16 in1021.3 mb - 0.00 in0.0 mm 1.38 in35.1 mm
08:30 PM 61.9°F16.6°C 59.5°F15.3°C 92% Calm Calm -- 30.16 in1021.3 mb - 0.00 in0.0 mm 1.38 in35.1 mm
08:40 PM 61.7°F16.5°C 59.4°F15.2°C 92% Calm Calm -- 30.16 in1021.3 mb - 0.00 in0.0 mm 1.38 in35.1 mm
08:50 PM 61.6°F16.4°C 59.6°F15.3°C 93% Calm Calm -- 30.17 in1021.7 mb - 0.00 in0.0 mm 1.38 in35.1 mm
09:00 PM 61.5°F16.4°C 59.5°F15.3°C 93% Calm Calm -- 30.17 in1021.7 mb - 0.00 in0.0 mm 1.38 in35.1 mm
09:10 PM 61.4°F16.3°C 59.7°F15.4°C 94% Calm Calm -- 30.17 in1021.7 mb - 0.00 in0.0 mm 1.38 in35.1 mm
09:20 PM 61.3°F16.3°C 59.6°F15.3°C 94% Calm Calm -- 30.18 in1022.0 mb - 0.00 in0.0 mm 1.38 in35.1 mm
09:30 PM 61.0°F16.1°C 59.3°F15.2°C 94% Calm Calm -- 30.18 in1022.0 mb - 0.00 in0.0 mm 1.38 in35.1 mm
09:40 PM 60.7°F15.9°C 59.0°F15.0°C 94% Calm Calm -- 30.19 in1022.4 mb - 0.00 in0.0 mm 1.38 in35.1 mm
09:50 PM 60.3°F15.7°C 58.9°F14.9°C 95% Calm Calm -- 30.19 in1022.4 mb - 0.00 in0.0 mm 1.38 in35.1 mm
10:00 PM 59.8°F15.4°C 58.4°F14.7°C 95% Calm Calm 1.0 mph1.6 kmh 30.19 in1022.4 mb - 0.00 in0.0 mm 1.38 in35.1 mm
10:10 PM 60.0°F15.6°C 58.0°F14.4°C 93% 0.3 mph NE0.5 kmh NE 4.0 mph6.4 kmh 30.19 in1022.4 mb - 0.00 in0.0 mm 1.38 in35.1 mm
10:20 PM 61.0°F16.1°C 56.1°F13.4°C 84% 0.3 mph ESE0.5 kmh ESE 1.0 mph1.6 kmh 30.19 in1022.4 mb - 0.00 in0.0 mm 1.38 in35.1 mm
10:30 PM 60.9°F16.1°C 56.4°F13.6°C 85% Calm Calm -- 30.19 in1022.4 mb - 0.00 in0.0 mm 1.38 in35.1 mm
10:40 PM 60.3°F15.7°C 56.4°F13.6°C 87% Calm Calm -- 30.20 in1022.7 mb - 0.00 in0.0 mm 1.38 in35.1 mm
10:50 PM 59.9°F15.5°C 56.0°F13.3°C 87% Calm Calm -- 30.20 in1022.7 mb - 0.00 in0.0 mm 1.38 in35.1 mm
11:00 PM 59.6°F15.3°C 55.7°F13.2°C 87% Calm Calm -- 30.20 in1022.7 mb - 0.00 in0.0 mm 1.38 in35.1 mm
11:10 PM 59.1°F15.1°C 55.5°F13.1°C 88% Calm Calm -- 30.20 in1022.7 mb - 0.00 in0.0 mm 1.38 in35.1 mm
11:20 PM 58.2°F14.6°C 55.0°F12.8°C 89% Calm Calm -- 30.20 in1022.7 mb - 0.00 in0.0 mm 1.38 in35.1 mm
11:30 PM 57.5°F14.2°C 54.0°F12.2°C 88% Calm Calm 1.0 mph1.6 kmh 30.21 in1023.0 mb - 0.00 in0.0 mm 1.38 in35.1 mm
11:40 PM 57.9°F14.4°C 53.4°F11.9°C 85% Calm Calm -- 30.21 in1023.0 mb - 0.00 in0.0 mm 1.38 in35.1 mm
11:50 PM 57.6°F14.2°C 52.8°F11.6°C 84% Calm Calm -- 30.21 in1023.0 mb - 0.00 in0.0 mm 1.38 in35.1 mm